createdAt,value
2023-01-02T00:01:06.188Z,100.00
2023-01-02T00:03:33.073Z,100.00
2023-01-02T00:06:03.412Z,100.00
2023-01-02T00:08:30.065Z,100.00
2023-01-02T00:10:56.793Z,100.00
2023-01-02T00:13:23.694Z,100.00
2023-01-02T00:15:50.367Z,100.00
2023-01-02T00:18:17.083Z,100.00
2023-01-02T00:20:43.800Z,100.00
2023-01-02T00:23:10.421Z,100.00
2023-01-02T00:25:37.740Z,100.00
2023-01-02T00:28:04.885Z,100.00
2023-01-02T00:30:37.838Z,100.00
2023-01-02T00:33:06.123Z,100.00
2023-01-02T00:35:33.059Z,100.00
2023-01-02T00:37:59.664Z,100.00
2023-01-02T00:40:26.348Z,100.00
2023-01-02T00:42:53.039Z,100.00
2023-01-02T00:45:19.730Z,100.00
2023-01-02T00:47:46.386Z,100.00
2023-01-02T00:50:13.131Z,100.00
2023-01-02T00:52:39.846Z,100.00
2023-01-02T00:55:07.556Z,100.00
2023-01-02T00:57:34.411Z,100.00
2023-01-02T01:00:01.062Z,100.00
2023-01-02T01:02:27.839Z,100.00
2023-01-02T01:04:54.654Z,100.00
2023-01-02T01:07:21.971Z,100.00
2023-01-02T01:09:48.654Z,100.00
2023-01-02T01:12:16.442Z,100.00
2023-01-02T01:14:44.044Z,100.00
2023-01-02T01:17:10.726Z,100.00
2023-01-02T01:19:37.491Z,100.00
2023-01-02T01:22:05.243Z,100.00
2023-01-02T01:24:31.877Z,100.00
2023-01-02T01:26:58.681Z,100.00
2023-01-02T01:29:25.324Z,100.00
2023-01-02T01:31:52.201Z,100.00
2023-01-02T01:34:19.169Z,100.00
2023-01-02T01:36:45.826Z,100.00
2023-01-02T01:39:12.781Z,100.00
2023-01-02T01:41:39.455Z,100.00
2023-01-02T01:44:42.749Z,100.00
2023-01-02T01:47:18.442Z,100.00
2023-01-02T01:49:46.101Z,100.00
2023-01-02T01:52:17.686Z,100.00
2023-01-02T01:55:05.528Z,100.00
2023-01-02T01:57:36.571Z,100.00
2023-01-02T02:00:05.353Z,100.00
2023-01-02T02:02:33.516Z,100.00
2023-01-02T02:05:05.853Z,100.00
2023-01-02T02:07:36.219Z,100.00
2023-01-02T02:10:07.034Z,100.00
2023-01-02T02:12:34.754Z,100.00
2023-01-02T02:15:01.587Z,100.00
2023-01-02T02:17:41.036Z,100.00
2023-01-02T02:20:39.546Z,100.00
2023-01-02T02:23:25.069Z,100.00
2023-01-02T02:26:30.920Z,100.00
2023-01-02T02:29:19.628Z,100.00
2023-01-02T02:31:52.288Z,100.00
2023-01-02T02:34:50.169Z,100.00
2023-01-02T02:38:14.806Z,100.00
2023-01-02T02:41:04.271Z,100.00
2023-01-02T02:43:39.955Z,100.00
2023-01-02T02:46:21.332Z,100.00
2023-01-02T02:48:59.947Z,100.00
2023-01-02T02:51:37.716Z,100.00
2023-01-02T02:54:12.983Z,100.00
2023-01-02T02:56:41.873Z,100.00
2023-01-02T02:59:09.128Z,100.00
2023-01-02T03:01:36.403Z,100.00
2023-01-02T03:04:03.538Z,100.00
2023-01-02T03:06:50.526Z,100.00
2023-01-02T03:09:39.190Z,100.00
2023-01-02T03:12:33.672Z,100.00
2023-01-02T03:15:24.785Z,100.00
2023-01-02T03:18:13.473Z,100.00
2023-01-02T03:20:47.846Z,100.00
2023-01-02T03:23:21.723Z,100.00
2023-01-02T03:25:48.753Z,100.00
2023-01-02T03:28:19.634Z,100.00
2023-01-02T03:30:50.749Z,100.00
2023-01-02T03:33:25.291Z,100.00
2023-01-02T03:35:56.823Z,100.00
2023-01-02T03:38:28.882Z,100.00
2023-01-02T03:41:09.619Z,100.00
2023-01-02T03:43:40.299Z,100.00
2023-01-02T03:46:21.732Z,100.00
2023-01-02T03:48:51.261Z,100.00
2023-01-02T03:51:18.112Z,100.00
2023-01-02T03:53:46.334Z,100.00
2023-01-02T03:56:34.358Z,100.00
2023-01-02T03:59:23.127Z,100.00
2023-01-02T04:01:57.401Z,100.00
2023-01-02T04:04:36.465Z,100.00
2023-01-02T04:07:09.942Z,100.00
2023-01-02T04:09:39.657Z,100.00
2023-01-02T04:12:16.556Z,100.00
2023-01-02T04:15:07.930Z,100.00
2023-01-02T04:17:57.293Z,100.00
2023-01-02T04:20:28.423Z,100.00
2023-01-02T04:23:00.564Z,100.00
2023-01-02T04:25:34.076Z,100.00
2023-01-02T04:28:15.228Z,100.00
2023-01-02T04:30:46.724Z,100.00
2023-01-02T04:33:16.152Z,100.00
2023-01-02T04:35:42.888Z,100.00
2023-01-02T04:38:12.630Z,100.00
2023-01-02T04:40:39.691Z,100.00
2023-01-02T04:43:17.817Z,100.00
2023-01-02T04:45:44.454Z,100.00
2023-01-02T04:48:11.269Z,100.00
2023-01-02T04:50:37.941Z,100.00
2023-01-02T04:53:04.620Z,100.00
2023-01-02T04:55:31.283Z,100.00
2023-01-02T04:57:58.603Z,100.00
2023-01-02T05:00:25.300Z,100.00
2023-01-02T05:02:52.042Z,100.00
2023-01-02T05:05:18.819Z,100.00
2023-01-02T05:07:47.561Z,100.00
2023-01-02T05:10:14.660Z,100.00
2023-01-02T05:12:41.531Z,100.00
2023-01-02T05:15:10.066Z,100.00
2023-01-02T05:17:38.851Z,100.00
2023-01-02T05:20:07.746Z,100.00
2023-01-02T05:22:52.805Z,100.00
2023-01-02T05:25:19.500Z,100.00
2023-01-02T05:27:46.269Z,100.00
2023-01-02T05:30:13.093Z,100.00
2023-01-02T05:32:39.727Z,100.00
2023-01-02T05:35:06.665Z,100.00
2023-01-02T05:37:33.366Z,100.00
2023-01-02T05:40:00.043Z,100.00
2023-01-02T05:42:26.791Z,100.00
2023-01-02T05:44:53.675Z,100.00
2023-01-02T05:47:20.398Z,100.00
2023-01-02T05:49:47.063Z,100.00
2023-01-02T05:52:13.827Z,100.00
2023-01-02T05:54:40.488Z,100.00
2023-01-02T05:57:07.192Z,100.00
2023-01-02T05:59:36.239Z,100.00
2023-01-02T06:02:03.489Z,100.00
2023-01-02T06:04:30.282Z,100.00
2023-01-02T06:06:56.960Z,100.00
2023-01-02T06:09:23.689Z,100.00
2023-01-02T06:11:50.344Z,100.00
2023-01-02T06:14:16.987Z,100.00
2023-01-02T06:16:43.659Z,100.00
2023-01-02T06:19:11.485Z,100.00
2023-01-02T06:21:38.116Z,100.00
2023-01-02T06:24:04.845Z,100.00
2023-01-02T06:26:35.177Z,100.00
2023-01-02T06:29:03.272Z,100.00
2023-01-02T06:31:30.237Z,100.00
2023-01-02T06:33:59.242Z,100.00
2023-01-02T06:36:27.223Z,100.00
2023-01-02T06:38:53.927Z,100.00
2023-01-02T06:41:20.552Z,100.00
2023-01-02T06:43:50.063Z,100.00
2023-01-02T06:46:19.235Z,100.00
2023-01-02T06:48:46.606Z,100.00
2023-01-02T06:51:16.053Z,100.00
2023-01-02T06:53:44.276Z,100.00
2023-01-02T06:56:12.026Z,100.00
2023-01-02T06:58:38.967Z,100.00
2023-01-02T07:01:09.110Z,100.00
2023-01-02T07:03:36.387Z,100.00
2023-01-02T07:06:04.950Z,100.00
2023-01-02T07:08:32.773Z,93.00
2023-01-02T07:11:20.493Z,78.78
2023-01-02T07:13:48.888Z,71.57
2023-01-02T07:16:17.372Z,68.56
2023-01-02T07:18:44.435Z,63.70
2023-01-02T07:21:13.145Z,63.09
2023-01-02T07:23:40.047Z,66.23
2023-01-02T07:26:07.684Z,64.02
2023-01-02T07:28:35.583Z,64.43
2023-01-02T07:31:04.825Z,64.68
2023-01-02T07:33:32.875Z,62.37
2023-01-02T07:36:01.206Z,61.28
2023-01-02T07:38:28.756Z,58.23
2023-01-02T07:40:55.642Z,58.47
2023-01-02T07:43:23.181Z,58.31
2023-01-02T07:45:51.148Z,56.81
2023-01-02T07:48:18.595Z,58.18
2023-01-02T07:50:45.677Z,57.91
2023-01-02T07:53:13.833Z,57.78
2023-01-02T07:55:40.878Z,56.80
2023-01-02T07:58:07.845Z,54.14
2023-01-02T08:00:34.519Z,54.67
2023-01-02T08:03:01.613Z,54.40
2023-01-02T08:05:28.349Z,54.41
2023-01-02T08:07:55.040Z,53.10
2023-01-02T08:10:21.999Z,53.12
2023-01-02T08:12:48.614Z,52.15
2023-01-02T08:15:16.405Z,52.04
2023-01-02T08:17:43.271Z,51.08
2023-01-02T08:20:11.575Z,50.11
2023-01-02T08:22:38.450Z,48.97
2023-01-02T08:25:05.859Z,49.68
2023-01-02T08:27:32.660Z,49.80
2023-01-02T08:29:59.653Z,49.32
2023-01-02T08:32:26.593Z,48.34
2023-01-02T08:34:53.243Z,48.95
2023-01-02T08:37:20.028Z,48.05
2023-01-02T08:39:46.778Z,48.50
2023-01-02T08:42:13.418Z,47.73
2023-01-02T08:44:40.434Z,46.63
2023-01-02T08:47:07.125Z,48.66
2023-01-02T08:49:33.829Z,47.87
2023-01-02T08:52:00.552Z,48.48
2023-01-02T08:54:27.303Z,46.81
2023-01-02T08:56:54.047Z,45.82
2023-01-02T08:59:24.567Z,45.58
2023-01-02T09:01:52.804Z,45.03
2023-01-02T09:04:20.210Z,44.30
2023-01-02T09:06:47.713Z,45.68
2023-01-02T09:09:16.335Z,47.23
2023-01-02T09:11:52.717Z,45.66
2023-01-02T09:14:21.721Z,45.04
2023-01-02T09:16:49.358Z,44.13
2023-01-02T09:19:16.113Z,42.53
2023-01-02T09:21:42.889Z,42.49
2023-01-02T09:24:10.063Z,41.91
2023-01-02T09:26:38.187Z,40.22
2023-01-02T09:29:05.372Z,39.76
2023-01-02T09:31:32.168Z,41.04
2023-01-02T09:33:59.164Z,41.97
2023-01-02T09:36:26.448Z,44.57
2023-01-02T09:38:54.662Z,45.71
2023-01-02T09:41:21.363Z,44.74
2023-01-02T09:44:01.937Z,44.30
2023-01-02T09:46:46.552Z,43.44
2023-01-02T09:49:18.445Z,41.72
2023-01-02T09:51:45.793Z,42.24
2023-01-02T09:54:28.530Z,42.65
2023-01-02T09:57:00.272Z,42.24
2023-01-02T09:59:35.081Z,41.31
2023-01-02T10:02:26.749Z,40.92
2023-01-02T10:05:08.793Z,40.83
2023-01-02T10:07:50.971Z,40.29
2023-01-02T10:10:25.196Z,39.58
2023-01-02T10:13:06.354Z,38.99
2023-01-02T10:15:33.567Z,38.90
2023-01-02T10:18:21.351Z,38.29
2023-01-02T10:20:56.226Z,38.25
2023-01-02T10:23:28.141Z,38.48
2023-01-02T10:26:00.921Z,38.10
2023-01-02T10:28:52.264Z,36.49
2023-01-02T10:31:28.979Z,36.56
2023-01-02T10:33:59.897Z,35.06
2023-01-02T10:36:26.985Z,34.33
2023-01-02T10:38:59.313Z,34.18
2023-01-02T10:41:28.447Z,35.56
2023-01-02T10:43:59.691Z,34.96
2023-01-02T10:46:34.563Z,35.10
2023-01-02T10:49:03.113Z,34.97
2023-01-02T10:51:30.804Z,35.87
2023-01-02T10:54:06.133Z,35.80
2023-01-02T10:56:36.501Z,35.90
2023-01-02T10:59:04.314Z,35.63
2023-01-02T11:01:31.219Z,35.33
2023-01-02T11:03:58.051Z,35.09
2023-01-02T11:06:29.991Z,35.73
2023-01-02T11:09:02.818Z,34.84
2023-01-02T11:11:33.206Z,35.77
2023-01-02T11:14:11.531Z,35.32
2023-01-02T11:16:40.369Z,34.55
2023-01-02T11:19:14.280Z,35.86
2023-01-02T11:21:41.802Z,35.02
2023-01-02T11:24:19.920Z,34.43
2023-01-02T11:26:48.710Z,34.58
2023-01-02T11:29:27.590Z,34.20
2023-01-02T11:31:59.757Z,33.53
2023-01-02T11:34:38.521Z,32.89
2023-01-02T11:37:25.561Z,32.84
2023-01-02T11:40:24.447Z,32.39
2023-01-02T11:43:11.158Z,32.78
2023-01-02T11:45:38.327Z,32.26
2023-01-02T11:48:11.548Z,32.98
2023-01-02T11:50:38.799Z,31.96
2023-01-02T11:53:18.907Z,32.26
2023-01-02T11:56:15.114Z,32.16
2023-01-02T11:58:58.862Z,32.44
2023-01-02T12:01:53.117Z,32.51
2023-01-02T12:04:20.501Z,33.39
2023-01-02T12:07:04.781Z,33.30
2023-01-02T12:09:49.894Z,31.88
2023-01-02T12:12:30.199Z,32.41
2023-01-02T12:15:15.545Z,32.16
2023-01-02T12:17:57.561Z,32.99
2023-01-02T12:20:56.798Z,33.38
2023-01-02T12:23:29.321Z,34.23
2023-01-02T12:26:19.339Z,34.55
2023-01-02T12:28:58.167Z,34.15
2023-01-02T12:31:40.042Z,34.37
2023-01-02T12:34:15.873Z,33.24
2023-01-02T12:37:07.346Z,33.13
2023-01-02T12:39:53.201Z,33.92
2023-01-02T12:42:34.976Z,33.08
2023-01-02T12:45:01.681Z,33.32
2023-01-02T12:48:06.430Z,33.49
2023-01-02T12:50:54.760Z,33.81
2023-01-02T12:53:40.530Z,33.55
2023-01-02T12:56:25.323Z,33.80
2023-01-02T12:59:29.809Z,33.58
2023-01-02T13:02:11.477Z,33.51
2023-01-02T13:04:42.975Z,34.18
2023-01-02T13:07:15.539Z,34.46
2023-01-02T13:09:45.300Z,34.78
2023-01-02T13:12:17.875Z,35.34
2023-01-02T13:14:53.877Z,34.61
2023-01-02T13:17:51.755Z,34.86
2023-01-02T13:20:21.135Z,34.51
2023-01-02T13:23:07.753Z,34.55
2023-01-02T13:25:39.169Z,34.59
2023-01-02T13:28:08.882Z,35.65
2023-01-02T13:30:35.980Z,36.13
2023-01-02T13:33:12.119Z,36.68
2023-01-02T13:35:39.209Z,36.57
2023-01-02T13:38:08.386Z,37.64
2023-01-02T13:40:35.272Z,37.89
2023-01-02T13:43:09.252Z,38.54
2023-01-02T13:45:53.569Z,39.26
2023-01-02T13:48:32.642Z,38.47
2023-01-02T13:51:02.907Z,39.28
2023-01-02T13:53:39.386Z,39.19
2023-01-02T13:56:09.496Z,38.94
2023-01-02T13:58:41.031Z,38.96
2023-01-02T14:01:25.981Z,38.90
2023-01-02T14:04:08.298Z,38.99
2023-01-02T14:06:36.092Z,39.92
2023-01-02T14:09:05.816Z,39.94
2023-01-02T14:11:55.448Z,41.62
2023-01-02T14:14:41.755Z,42.74
2023-01-02T14:17:30.705Z,44.06
2023-01-02T14:20:19.035Z,44.97
2023-01-02T14:23:06.740Z,45.88
2023-01-02T14:25:34.643Z,46.46
2023-01-02T14:28:06.630Z,48.62
2023-01-02T14:30:38.918Z,50.12
2023-01-02T14:33:18.991Z,50.76
2023-01-02T14:35:58.652Z,50.89
2023-01-02T14:38:28.674Z,52.30
2023-01-02T14:41:15.414Z,52.34
2023-01-02T14:43:44.149Z,54.49
2023-01-02T14:46:21.143Z,56.74
2023-01-02T14:49:25.001Z,59.15
2023-01-02T14:52:00.696Z,62.18
2023-01-02T14:54:38.344Z,64.21
2023-01-02T14:57:31.508Z,63.59
2023-01-02T15:00:02.824Z,66.77
2023-01-02T15:02:41.658Z,68.82
2023-01-02T15:05:18.539Z,70.68
2023-01-02T15:07:53.510Z,73.07
2023-01-02T15:10:22.728Z,73.45
2023-01-02T15:13:05.572Z,75.34
2023-01-02T15:15:45.946Z,74.14
2023-01-02T15:18:22.010Z,75.83
2023-01-02T15:20:50.947Z,78.85
2023-01-02T15:23:23.594Z,79.92
2023-01-02T15:25:50.968Z,81.34
2023-01-02T15:28:28.948Z,84.91
2023-01-02T15:31:12.366Z,85.97
2023-01-02T15:33:39.216Z,87.60
2023-01-02T15:36:11.816Z,92.45
2023-01-02T15:38:38.509Z,93.85
2023-01-02T15:41:05.448Z,95.54
2023-01-02T15:43:53.332Z,96.56
2023-01-02T15:46:20.920Z,100.00
2023-01-02T15:48:49.262Z,100.00
2023-01-02T15:51:18.906Z,99.55
2023-01-02T15:53:50.137Z,100.00
2023-01-02T15:56:38.854Z,100.00
2023-01-02T15:59:27.365Z,100.00
2023-01-02T16:01:54.225Z,100.00
2023-01-02T16:04:32.699Z,100.00
2023-01-02T16:07:13.008Z,100.00
2023-01-02T16:09:40.424Z,100.00
2023-01-02T16:12:18.652Z,100.00
2023-01-02T16:14:50.836Z,100.00
2023-01-02T16:17:26.525Z,100.00
2023-01-02T16:19:59.973Z,100.00
2023-01-02T16:22:48.114Z,100.00
2023-01-02T16:25:24.513Z,100.00
2023-01-02T16:27:51.184Z,100.00
2023-01-02T16:30:30.479Z,100.00
2023-01-02T16:33:23.263Z,100.00
2023-01-02T16:36:00.882Z,100.00
2023-01-02T16:38:28.795Z,100.00
2023-01-02T16:41:04.540Z,100.00
2023-01-02T16:43:37.969Z,100.00
2023-01-02T16:46:12.983Z,100.00
2023-01-02T16:48:42.281Z,100.00
2023-01-02T16:51:09.113Z,100.00
2023-01-02T16:53:35.873Z,100.00
2023-01-02T16:56:04.020Z,100.00
2023-01-02T16:58:30.949Z,100.00
2023-01-02T17:00:57.970Z,100.00
2023-01-02T17:03:26.761Z,100.00
2023-01-02T17:06:04.398Z,100.00
2023-01-02T17:08:32.394Z,100.00
2023-01-02T17:11:00.037Z,100.00
2023-01-02T17:13:27.739Z,100.00
2023-01-02T17:15:54.753Z,100.00
2023-01-02T17:18:21.762Z,100.00
2023-01-02T17:20:48.859Z,100.00
2023-01-02T17:23:18.944Z,100.00
2023-01-02T17:25:46.417Z,100.00
2023-01-02T17:28:14.021Z,100.00
2023-01-02T17:30:45.613Z,100.00
2023-01-02T17:33:12.257Z,100.00
2023-01-02T17:35:39.243Z,100.00
2023-01-02T17:38:06.271Z,100.00
2023-01-02T17:40:33.328Z,100.00
2023-01-02T17:43:00.062Z,100.00
2023-01-02T17:45:27.013Z,100.00
2023-01-02T17:48:09.275Z,100.00
2023-01-02T17:50:38.082Z,100.00
2023-01-02T17:53:04.784Z,100.00
2023-01-02T17:55:31.564Z,100.00
2023-01-02T17:58:00.932Z,100.00
2023-01-02T18:00:27.842Z,100.00
2023-01-02T18:02:54.687Z,100.00
2023-01-02T18:05:22.362Z,100.00
2023-01-02T18:07:48.974Z,100.00
2023-01-02T18:10:20.153Z,100.00
2023-01-02T18:12:47.600Z,100.00
2023-01-02T18:15:16.061Z,100.00
2023-01-02T18:17:42.939Z,100.00
2023-01-02T18:20:15.567Z,100.00
2023-01-02T18:22:49.115Z,100.00
2023-01-02T18:25:24.703Z,100.00
2023-01-02T18:27:51.962Z,100.00
2023-01-02T18:30:22.653Z,100.00
2023-01-02T18:32:52.972Z,100.00
2023-01-02T18:35:56.806Z,100.00
2023-01-02T18:38:31.917Z,100.00
2023-01-02T18:40:58.928Z,100.00
2023-01-02T18:43:31.808Z,100.00
2023-01-02T18:46:10.086Z,100.00
2023-01-02T18:48:36.928Z,100.00
2023-01-02T18:51:03.652Z,100.00
2023-01-02T18:53:37.294Z,100.00
2023-01-02T18:56:14.879Z,100.00
2023-01-02T18:58:44.167Z,100.00
2023-01-02T19:01:27.238Z,100.00
2023-01-02T19:04:08.752Z,100.00
2023-01-02T19:06:47.233Z,100.00
2023-01-02T19:09:21.695Z,100.00
2023-01-02T19:12:14.804Z,100.00
2023-01-02T19:14:43.744Z,100.00
2023-01-02T19:17:24.351Z,100.00
2023-01-02T19:19:51.148Z,100.00
2023-01-02T19:22:21.798Z,100.00
2023-01-02T19:24:49.211Z,100.00
2023-01-02T19:27:29.889Z,100.00
2023-01-02T19:29:56.584Z,100.00
2023-01-02T19:32:31.000Z,100.00
2023-01-02T19:35:11.049Z,100.00
2023-01-02T19:37:43.143Z,100.00
2023-01-02T19:40:21.203Z,100.00
2023-01-02T19:42:49.443Z,100.00
2023-01-02T19:45:24.354Z,100.00
2023-01-02T19:47:51.699Z,100.00
2023-01-02T19:50:21.303Z,100.00
2023-01-02T19:52:48.728Z,100.00
2023-01-02T19:55:17.949Z,100.00
2023-01-02T19:57:45.888Z,100.00
2023-01-02T20:00:14.860Z,100.00
2023-01-02T20:02:43.071Z,100.00
2023-01-02T20:05:11.893Z,100.00
2023-01-02T20:07:40.231Z,100.00
2023-01-02T20:10:07.444Z,100.00
2023-01-02T20:12:34.771Z,100.00
2023-01-02T20:15:08.850Z,100.00
2023-01-02T20:17:36.986Z,100.00
2023-01-02T20:20:05.544Z,100.00
2023-01-02T20:22:32.426Z,100.00
2023-01-02T20:24:59.218Z,100.00
2023-01-02T20:27:26.936Z,100.00
2023-01-02T20:29:56.961Z,100.00
2023-01-02T20:32:24.364Z,100.00
2023-01-02T20:34:52.177Z,100.00
2023-01-02T20:37:21.585Z,100.00
2023-01-02T20:39:52.426Z,100.00
2023-01-02T20:42:20.169Z,100.00
2023-01-02T20:44:47.846Z,100.00
2023-01-02T20:47:15.278Z,100.00
2023-01-02T20:49:42.163Z,100.00
2023-01-02T20:52:09.493Z,100.00
2023-01-02T20:54:36.551Z,100.00
2023-01-02T20:57:03.557Z,100.00
2023-01-02T20:59:30.318Z,100.00
2023-01-02T21:01:57.101Z,100.00
2023-01-02T21:04:29.232Z,100.00
2023-01-02T21:07:01.039Z,100.00
2023-01-02T21:09:27.753Z,100.00
2023-01-02T21:11:54.496Z,100.00
2023-01-02T21:14:21.269Z,100.00
2023-01-02T21:16:48.016Z,100.00
2023-01-02T21:19:15.092Z,100.00
2023-01-02T21:21:41.854Z,100.00
2023-01-02T21:24:08.672Z,100.00
2023-01-02T21:26:35.431Z,100.00
2023-01-02T21:29:03.109Z,100.00
2023-01-02T21:31:30.075Z,100.00
2023-01-02T21:33:56.938Z,100.00
2023-01-02T21:36:23.752Z,100.00
2023-01-02T21:38:50.626Z,100.00
2023-01-02T21:41:35.847Z,100.00
2023-01-02T21:44:02.739Z,100.00
2023-01-02T21:46:29.530Z,100.00
2023-01-02T21:48:56.252Z,100.00
2023-01-02T21:51:26.401Z,100.00
2023-01-02T21:53:55.789Z,100.00
2023-01-02T21:56:22.736Z,100.00
2023-01-02T21:58:49.589Z,100.00
2023-01-02T22:01:16.419Z,100.00
2023-01-02T22:03:43.393Z,100.00
2023-01-02T22:06:10.345Z,100.00
2023-01-02T22:08:37.541Z,100.00
2023-01-02T22:11:22.787Z,100.00
2023-01-02T22:13:49.383Z,100.00
2023-01-02T22:16:16.327Z,100.00
2023-01-02T22:18:43.051Z,100.00
2023-01-02T22:21:09.760Z,100.00
2023-01-02T22:23:36.422Z,100.00
2023-01-02T22:26:03.098Z,100.00
2023-01-02T22:28:30.085Z,100.00
2023-01-02T22:30:56.802Z,100.00
2023-01-02T22:33:23.545Z,100.00
2023-01-02T22:35:50.294Z,100.00
2023-01-02T22:38:17.277Z,100.00
2023-01-02T22:40:43.922Z,100.00
2023-01-02T22:43:16.804Z,100.00
2023-01-02T22:45:50.631Z,100.00
2023-01-02T22:48:31.073Z,100.00
2023-01-02T22:51:00.228Z,100.00
2023-01-02T22:53:30.458Z,100.00
2023-01-02T22:55:57.132Z,100.00
2023-01-02T22:58:24.778Z,100.00
2023-01-02T23:00:59.195Z,100.00
2023-01-02T23:03:29.559Z,100.00
2023-01-02T23:05:56.816Z,100.00
2023-01-02T23:08:23.743Z,100.00
2023-01-02T23:10:50.521Z,100.00
2023-01-02T23:13:17.216Z,100.00
2023-01-02T23:16:02.528Z,100.00
2023-01-02T23:18:54.554Z,100.00
2023-01-02T23:21:25.009Z,100.00
2023-01-02T23:23:52.027Z,100.00
2023-01-02T23:26:19.564Z,100.00
2023-01-02T23:31:35.286Z,100.00
2023-01-02T23:34:01.993Z,100.00
2023-01-02T23:36:28.950Z,100.00
2023-01-02T23:38:55.681Z,100.00
2023-01-02T23:41:22.319Z,100.00
2023-01-02T23:43:49.109Z,100.00
2023-01-02T23:46:15.996Z,100.00
2023-01-02T23:48:42.680Z,100.00
2023-01-02T23:51:09.398Z,100.00
2023-01-02T23:53:36.081Z,100.00
2023-01-02T23:56:03.240Z,100.00
2023-01-02T23:58:29.988Z,100.00
